sensor_id;sensor_type;location;lat;lon;timestamp;temperature;humidity
12771;DHT22;6449;47.666;9.160;2023-03-17T00:00:29;2.40;99.90
12771;DHT22;6449;47.666;9.160;2023-03-17T00:05:24;2.10;99.90
12771;DHT22;6449;47.666;9.160;2023-03-17T01:10:05;2.20;99.90
12771;DHT22;6449;47.666;9.160;2023-03-17T01:15:05;2.10;99.90
12771;DHT22;6449;47.666;9.160;2023-03-17T01:19:59;2.20;99.90
12771;DHT22;6449;47.666;9.160;2023-03-17T01:24:52;2.30;99.90
12771;DHT22;6449;47.666;9.160;2023-03-17T01:29:51;2.20;99.90
12771;DHT22;6449;47.666;9.160;2023-03-17T01:34:45;2.10;99.90
12771;DHT22;6449;47.666;9.160;2023-03-17T01:39:38;2.10;99.90
12771;DHT22;6449;47.666;9.160;2023-03-17T01:44:32;2.10;99.90
12771;DHT22;6449;47.666;9.160;2023-03-17T02:30:23;2.00;99.90
12771;DHT22;6449;47.666;9.160;2023-03-17T02:35:17;2.20;99.90
12771;DHT22;6449;47.666;9.160;2023-03-17T02:40:12;1.80;99.90
12771;DHT22;6449;47.666;9.160;2023-03-17T02:45:09;1.70;99.90
12771;DHT22;6449;47.666;9.160;2023-03-17T02:50:07;1.80;99.90
12771;DHT22;6449;47.666;9.160;2023-03-17T02:55:02;1.90;99.90
12771;DHT22;6449;47.666;9.160;2023-03-17T02:59:56;1.80;99.90
12771;DHT22;6449;47.666;9.160;2023-03-17T03:04:49;1.80;99.90
12771;DHT22;6449;47.666;9.160;2023-03-17T03:30:13;1.50;99.90
12771;DHT22;6449;47.666;9.160;2023-03-17T03:35:07;1.70;99.90
12771;DHT22;6449;47.666;9.160;2023-03-17T03:40:01;1.70;99.90
12771;DHT22;6449;47.666;9.160;2023-03-17T03:44:55;1.80;99.90
12771;DHT22;6449;47.666;9.160;2023-03-17T04:20:32;1.80;99.90
12771;DHT22;6449;47.666;9.160;2023-03-17T04:25:25;1.90;99.90
12771;DHT22;6449;47.666;9.160;2023-03-17T04:30:19;2.00;99.90
12771;DHT22;6449;47.666;9.160;2023-03-17T04:35:14;2.00;99.90
12771;DHT22;6449;47.666;9.160;2023-03-17T04:40:12;2.00;99.90
12771;DHT22;6449;47.666;9.160;2023-03-17T04:45:09;2.00;99.90
12771;DHT22;6449;47.666;9.160;2023-03-17T05:00:20;1.80;99.90
12771;DHT22;6449;47.666;9.160;2023-03-17T05:10:14;1.70;99.90
12771;DHT22;6449;47.666;9.160;2023-03-17T05:15:08;1.50;99.90
12771;DHT22;6449;47.666;9.160;2023-03-17T05:20:04;1.50;99.90
12771;DHT22;6449;47.666;9.160;2023-03-17T05:24:59;1.40;99.90
12771;DHT22;6449;47.666;9.160;2023-03-17T05:29:52;1.20;99.90
12771;DHT22;6449;47.666;9.160;2023-03-17T05:34:46;1.40;99.90
12771;DHT22;6449;47.666;9.160;2023-03-17T05:39:40;1.40;99.90
12771;DHT22;6449;47.666;9.160;2023-03-17T05:44:36;1.10;99.90
12771;DHT22;6449;47.666;9.160;2023-03-17T06:50:55;1.80;99.90
12771;DHT22;6449;47.666;9.160;2023-03-17T06:55:49;2.00;99.90
12771;DHT22;6449;47.666;9.160;2023-03-17T07:00:42;2.20;99.90
12771;DHT22;6449;47.666;9.160;2023-03-17T07:05:39;2.40;99.90
12771;DHT22;6449;47.666;9.160;2023-03-17T07:51:19;3.80;99.90
12771;DHT22;6449;47.666;9.160;2023-03-17T09:13:13;6.80;99.90
12771;DHT22;6449;47.666;9.160;2023-03-17T09:18:07;6.70;99.90
12771;DHT22;6449;47.666;9.160;2023-03-17T09:23:05;6.70;99.90
12771;DHT22;6449;47.666;9.160;2023-03-17T09:27:59;6.80;99.90
12771;DHT22;6449;47.666;9.160;2023-03-17T09:32:54;7.00;99.90
12771;DHT22;6449;47.666;9.160;2023-03-17T09:37:49;7.10;99.90
12771;DHT22;6449;47.666;9.160;2023-03-17T09:42:51;7.00;99.90
12771;DHT22;6449;47.666;9.160;2023-03-17T10:34:15;9.00;99.90
12771;DHT22;6449;47.666;9.160;2023-03-17T10:39:12;9.10;99.90
12771;DHT22;6449;47.666;9.160;2023-03-17T10:44:21;9.20;99.90
12771;DHT22;6449;47.666;9.160;2023-03-17T11:26:24;9.90;99.90
12771;DHT22;6449;47.666;9.160;2023-03-17T11:58:17;10.00;99.90
12771;DHT22;6449;47.666;9.160;2023-03-17T12:03:37;10.20;99.90
12771;DHT22;6449;47.666;9.160;2023-03-17T12:09:31;10.20;99.90
12771;DHT22;6449;47.666;9.160;2023-03-17T12:15:13;10.40;99.90
12771;DHT22;6449;47.666;9.160;2023-03-17T12:20:18;10.50;99.90
12771;DHT22;6449;47.666;9.160;2023-03-17T12:25:29;10.50;99.90
12771;DHT22;6449;47.666;9.160;2023-03-17T12:40:53;10.50;99.90
12771;DHT22;6449;47.666;9.160;2023-03-17T13:06:38;11.00;99.90
12771;DHT22;6449;47.666;9.160;2023-03-17T13:16:44;11.00;99.90
12771;DHT22;6449;47.666;9.160;2023-03-17T13:37:30;11.40;99.90
12771;DHT22;6449;47.666;9.160;2023-03-17T13:42:46;11.50;99.90
12771;DHT22;6449;47.666;9.160;2023-03-17T13:48:26;11.60;99.90
12771;DHT22;6449;47.666;9.160;2023-03-17T14:49:36;13.00;99.90
12771;DHT22;6449;47.666;9.160;2023-03-17T14:54:31;13.00;99.90
12771;DHT22;6449;47.666;9.160;2023-03-17T14:59:29;13.00;99.90
12771;DHT22;6449;47.666;9.160;2023-03-17T15:04:26;12.90;99.90
12771;DHT22;6449;47.666;9.160;2023-03-17T15:09:26;12.80;99.90
12771;DHT22;6449;47.666;9.160;2023-03-17T15:50:25;12.40;99.90
12771;DHT22;6449;47.666;9.160;2023-03-17T15:55:24;12.30;99.90
12771;DHT22;6449;47.666;9.160;2023-03-17T16:00:21;12.20;99.90
12771;DHT22;6449;47.666;9.160;2023-03-17T16:05:18;12.10;99.90
12771;DHT22;6449;47.666;9.160;2023-03-17T16:30:43;11.40;99.90
12771;DHT22;6449;47.666;9.160;2023-03-17T16:40:45;11.20;99.90
12771;DHT22;6449;47.666;9.160;2023-03-17T16:45:41;11.00;99.90
12771;DHT22;6449;47.666;9.160;2023-03-17T16:50:44;10.90;99.90
12771;DHT22;6449;47.666;9.160;2023-03-17T16:55:38;10.80;99.90
12771;DHT22;6449;47.666;9.160;2023-03-17T17:00:32;10.70;99.90
12771;DHT22;6449;47.666;9.160;2023-03-17T17:05:28;10.60;99.90
12771;DHT22;6449;47.666;9.160;2023-03-17T17:15:29;10.50;99.90
12771;DHT22;6449;47.666;9.160;2023-03-17T17:20:30;10.40;99.90
12771;DHT22;6449;47.666;9.160;2023-03-17T17:25:26;10.30;99.90
12771;DHT22;6449;47.666;9.160;2023-03-17T17:30:22;10.20;99.90
12771;DHT22;6449;47.666;9.160;2023-03-17T17:56:01;10.00;99.90
12771;DHT22;6449;47.666;9.160;2023-03-17T18:00:55;9.90;99.90
12771;DHT22;6449;47.666;9.160;2023-03-17T18:05:49;9.90;99.90
12771;DHT22;6449;47.666;9.160;2023-03-17T18:51:46;9.00;99.90
12771;DHT22;6449;47.666;9.160;2023-03-17T18:57:00;8.90;99.90
12771;DHT22;6449;47.666;9.160;2023-03-17T19:02:08;8.80;99.90
12771;DHT22;6449;47.666;9.160;2023-03-17T19:07:44;8.70;99.90
12771;DHT22;6449;47.666;9.160;2023-03-17T19:53:39;8.30;99.90
12771;DHT22;6449;47.666;9.160;2023-03-17T20:34:25;7.80;99.90
12771;DHT22;6449;47.666;9.160;2023-03-17T20:39:35;7.70;99.90
12771;DHT22;6449;47.666;9.160;2023-03-17T20:44:30;7.70;99.90
12771;DHT22;6449;47.666;9.160;2023-03-17T20:49:24;7.70;99.90
12771;DHT22;6449;47.666;9.160;2023-03-17T22:46:38;6.70;99.90
12771;DHT22;6449;47.666;9.160;2023-03-17T22:51:32;6.60;99.90
12771;DHT22;6449;47.666;9.160;2023-03-17T22:56:27;6.60;99.90
12771;DHT22;6449;47.666;9.160;2023-03-17T23:01:21;6.60;99.90
12771;DHT22;6449;47.666;9.160;2023-03-17T23:06:18;6.40;99.90
12771;DHT22;6449;47.666;9.160;2023-03-17T23:31:40;6.40;99.90
12771;DHT22;6449;47.666;9.160;2023-03-17T23:36:35;6.40;99.90
12771;DHT22;6449;47.666;9.160;2023-03-17T23:41:31;6.40;99.90
12771;DHT22;6449;47.666;9.160;2023-03-17T23:46:24;6.20;99.90
12771;DHT22;6449;47.666;9.160;2023-03-17T23:56:27;5.90;99.90
